Time;durP1;ratioP1;P1;durP2;ratioP2;P2;SDS_P1;SDS_P2;PMS_P1;PMS_P2;Temp;Humidity;BMP_temperature;BMP_pressure;BME280_temperature;BME280_humidity;BME280_pressure;Samples;Min_cycle;Max_cycle;Signal;HPM_P1;HPM_P2
2021/09/30 00:02:21;;;;;;;21.58;3.45;;;;;;;;;;5023955;28;20053;-69
2021/09/30 00:04:47;;;;;;;17.05;2.60;;;;;;;;;;5004750;28;20076;-68
2021/09/30 00:07:13;;;;;;;11.93;1.80;;;;;;;;;;5026539;28;20374;-69
2021/09/30 00:09:44;;;;;;;15.57;2.30;;;;;;;;;;5028145;28;20060;-69
2021/09/30 00:12:14;;;;;;;10.70;1.58;;;;;;;;;;4997243;28;20069;-69
2021/09/30 00:14:48;;;;;;;9.88;1.77;;;;;;;;;;5006707;28;20122;-69
2021/09/30 00:17:31;;;;;;;16.63;2.92;;;;;;;;;;5027572;28;20048;-69
2021/09/30 00:34:08;;;;;;;12.82;1.67;;;;;;;;;;5023374;28;20144;-68
2021/09/30 00:41:54;;;;;;;15.63;1.85;;;;;;;;;;5018780;28;20054;-68
2021/09/30 00:47:19;;;;;;;11.40;1.27;;;;;;;;;;5027223;28;20049;-68
2021/09/30 01:20:23;;;;;;;6.97;1.33;;;;;;;;;;5038529;28;20049;-69
2021/09/30 02:18:34;;;;;;;10.05;1.52;;;;;;;;;;5029659;28;20073;-68
2021/09/30 02:21:15;;;;;;;17.35;2.70;;;;;;;;;;5012606;28;20129;-69
2021/09/30 02:26:48;;;;;;;8.75;1.42;;;;;;;;;;5046464;28;20128;-69
2021/09/30 02:29:25;;;;;;;14.80;1.42;;;;;;;;;;5027334;28;20065;-69
2021/09/30 02:58:04;;;;;;;10.38;1.50;;;;;;;;;;5042423;28;20046;-69
2021/09/30 02:59:35;;;;;;;10.25;1.80;;;;;;;;;;5028850;28;20111;-68
2021/09/30 03:02:03;;;;;;;11.32;1.45;;;;;;;;;;5011533;28;20053;-68
2021/09/30 03:04:30;;;;;;;11.73;1.45;;;;;;;;;;5030883;28;20045;-69
2021/09/30 03:06:57;;;;;;;9.13;1.13;;;;;;;;;;5010036;28;20484;-69
2021/09/30 03:09:27;;;;;;;13.98;2.00;;;;;;;;;;5007136;28;20103;-68
2021/09/30 03:11:54;;;;;;;13.57;1.95;;;;;;;;;;5025422;28;20442;-69
2021/09/30 03:14:21;;;;;;;11.95;1.85;;;;;;;;;;5009054;28;20088;-69
2021/09/30 03:16:50;;;;;;;8.45;1.45;;;;;;;;;;5009009;28;20061;-69
2021/09/30 03:22:13;;;;;;;6.55;1.20;;;;;;;;;;5028817;28;20064;-68
2021/09/30 03:24:41;;;;;;;6.95;0.85;;;;;;;;;;5009975;28;20044;-69
2021/09/30 03:27:07;;;;;;;6.40;1.10;;;;;;;;;;5023879;28;20041;-69
2021/09/30 03:29:34;;;;;;;6.32;1.20;;;;;;;;;;5012017;28;20259;-68
2021/09/30 03:32:00;;;;;;;12.27;1.60;;;;;;;;;;5025210;28;20128;-69
2021/09/30 03:34:27;;;;;;;11.65;1.98;;;;;;;;;;5007179;28;20042;-69
2021/09/30 03:36:53;;;;;;;10.65;1.05;;;;;;;;;;5004755;28;20045;-69
2021/09/30 03:39:23;;;;;;;10.80;1.45;;;;;;;;;;5026799;28;20062;-69
2021/09/30 03:41:51;;;;;;;10.18;1.02;;;;;;;;;;5022195;28;20049;-69
2021/09/30 03:44:17;;;;;;;7.65;1.80;;;;;;;;;;5023510;28;20143;-68
2021/09/30 03:46:46;;;;;;;8.70;1.13;;;;;;;;;;5022175;28;20041;-69
2021/09/30 03:49:21;;;;;;;7.45;1.35;;;;;;;;;;5021272;28;20060;-69
2021/09/30 03:51:53;;;;;;;6.97;1.30;;;;;;;;;;5007090;28;20112;-69
2021/09/30 03:54:28;;;;;;;6.57;0.90;;;;;;;;;;4992021;28;20156;-69
2021/09/30 03:57:04;;;;;;;10.43;1.92;;;;;;;;;;5021863;28;20053;-69
2021/09/30 03:59:31;;;;;;;9.85;2.20;;;;;;;;;;5007849;28;20042;-69
2021/09/30 04:01:59;;;;;;;8.27;1.23;;;;;;;;;;5009848;28;20549;-68
2021/09/30 04:04:27;;;;;;;9.90;1.45;;;;;;;;;;5007886;28;20045;-69
2021/09/30 04:06:54;;;;;;;10.40;1.63;;;;;;;;;;5010766;28;20398;-69
2021/09/30 04:09:26;;;;;;;8.45;1.00;;;;;;;;;;5018383;28;20041;-69
2021/09/30 04:11:52;;;;;;;7.47;1.25;;;;;;;;;;5000801;28;20049;-69
2021/09/30 04:14:18;;;;;;;14.40;1.70;;;;;;;;;;5029004;28;20045;-68
2021/09/30 04:16:47;;;;;;;9.23;1.50;;;;;;;;;;5025039;28;20049;-69
2021/09/30 04:19:15;;;;;;;9.88;1.25;;;;;;;;;;5023855;28;20043;-68
2021/09/30 04:21:42;;;;;;;11.82;1.15;;;;;;;;;;5028034;28;20141;-68
2021/09/30 04:24:08;;;;;;;6.97;1.27;;;;;;;;;;5028301;28;20129;-69
2021/09/30 04:26:34;;;;;;;4.93;0.90;;;;;;;;;;4996118;28;20456;-68
2021/09/30 04:29:01;;;;;;;14.00;1.52;;;;;;;;;;5027491;28;20034;-69
2021/09/30 04:31:27;;;;;;;9.23;1.05;;;;;;;;;;5028688;28;20068;-69
2021/09/30 04:33:53;;;;;;;10.52;1.88;;;;;;;;;;5024590;28;20057;-69
2021/09/30 04:36:21;;;;;;;8.10;1.50;;;;;;;;;;5007911;28;20125;-69
2021/09/30 04:38:48;;;;;;;9.02;1.25;;;;;;;;;;5022904;28;20057;-69
2021/09/30 04:41:15;;;;;;;5.22;1.15;;;;;;;;;;5023357;28;20049;-69
2021/09/30 04:43:44;;;;;;;5.85;1.40;;;;;;;;;;5024618;28;20073;-69
2021/09/30 04:46:10;;;;;;;10.82;1.65;;;;;;;;;;5011352;28;20104;-69
2021/09/30 04:48:36;;;;;;;4.38;1.20;;;;;;;;;;5028072;28;20106;-69
2021/09/30 04:51:03;;;;;;;9.30;1.25;;;;;;;;;;5027460;28;20036;-68
2021/09/30 04:53:29;;;;;;;9.65;1.60;;;;;;;;;;5027459;28;20452;-69
2021/09/30 04:55:55;;;;;;;11.20;1.60;;;;;;;;;;5025605;28;20400;-69
2021/09/30 04:58:21;;;;;;;8.70;1.48;;;;;;;;;;5021517;28;20137;-69
2021/09/30 05:00:47;;;;;;;12.50;1.63;;;;;;;;;;5020611;28;20053;-68
2021/09/30 05:03:13;;;;;;;10.20;2.25;;;;;;;;;;5023427;28;20397;-69
2021/09/30 05:05:40;;;;;;;6.60;1.60;;;;;;;;;;5021838;28;20041;-69
2021/09/30 05:08:06;;;;;;;11.63;1.60;;;;;;;;;;5027117;28;20037;-69
2021/09/30 05:10:33;;;;;;;8.30;1.02;;;;;;;;;;5024119;28;20037;-69
2021/09/30 05:13:05;;;;;;;9.48;1.63;;;;;;;;;;5013000;28;20102;-69
2021/09/30 05:15:32;;;;;;;12.50;2.03;;;;;;;;;;5012894;28;20397;-69
2021/09/30 05:17:59;;;;;;;12.00;1.45;;;;;;;;;;5009508;28;20046;-69
2021/09/30 05:20:25;;;;;;;9.43;1.73;;;;;;;;;;5033540;28;20094;-69
2021/09/30 05:22:52;;;;;;;8.80;1.25;;;;;;;;;;5015585;28;20049;-69
2021/09/30 05:25:18;;;;;;;10.65;1.42;;;;;;;;;;5030320;28;20061;-69
2021/09/30 05:27:44;;;;;;;10.45;1.92;;;;;;;;;;5029516;28;20053;-69
2021/09/30 05:30:11;;;;;;;7.90;1.73;;;;;;;;;;5030014;28;20049;-69
2021/09/30 05:32:37;;;;;;;11.00;1.65;;;;;;;;;;5032746;28;20064;-69
2021/09/30 05:35:03;;;;;;;7.20;1.48;;;;;;;;;;5029940;28;20053;-69
2021/09/30 05:37:30;;;;;;;12.38;2.35;;;;;;;;;;5031756;28;20068;-69
2021/09/30 05:39:56;;;;;;;11.85;2.05;;;;;;;;;;5027819;28;20120;-69
2021/09/30 05:42:24;;;;;;;11.75;1.77;;;;;;;;;;5030342;28;20057;-69
2021/09/30 05:44:50;;;;;;;8.95;1.70;;;;;;;;;;5031385;28;20041;-69
2021/09/30 05:47:17;;;;;;;8.38;1.58;;;;;;;;;;5026143;28;20124;-69
2021/09/30 05:49:43;;;;;;;10.63;2.22;;;;;;;;;;5015296;28;20046;-69
2021/09/30 05:52:09;;;;;;;7.05;1.55;;;;;;;;;;5030310;28;20045;-69
2021/09/30 05:54:35;;;;;;;14.45;1.63;;;;;;;;;;5014863;28;20045;-69
2021/09/30 05:57:02;;;;;;;13.90;1.98;;;;;;;;;;5039303;28;20079;-69
2021/09/30 05:59:28;;;;;;;9.68;2.00;;;;;;;;;;5040850;28;20061;-69
2021/09/30 06:03:08;;;;;;;11.20;2.03;;;;;;;;;;5024258;28;20490;-69
2021/09/30 06:06:35;;;;;;;10.68;2.50;;;;;;;;;;5027569;28;20049;-69
2021/09/30 06:10:24;;;;;;;15.88;2.03;;;;;;;;;;5040266;28;20043;-69
2021/09/30 06:13:00;;;;;;;12.48;1.45;;;;;;;;;;5023284;28;20124;-69
2021/09/30 06:15:30;;;;;;;10.65;1.48;;;;;;;;;;5029350;28;20049;-69
2021/09/30 06:17:58;;;;;;;10.48;1.60;;;;;;;;;;5029977;28;20449;-69
2021/09/30 06:20:24;;;;;;;17.70;2.50;;;;;;;;;;5027027;28;20120;-69
2021/09/30 06:22:50;;;;;;;16.75;2.50;;;;;;;;;;5027663;28;20042;-70
2021/09/30 06:25:16;;;;;;;15.65;2.53;;;;;;;;;;5013395;28;20095;-70
2021/09/30 06:27:42;;;;;;;13.48;1.88;;;;;;;;;;5028866;28;20045;-70
2021/09/30 06:30:09;;;;;;;19.80;2.47;;;;;;;;;;5025703;28;20041;-70
2021/09/30 06:32:35;;;;;;;16.05;2.40;;;;;;;;;;5027261;28;20493;-70
2021/09/30 06:35:01;;;;;;;9.60;1.60;;;;;;;;;;5020500;28;20389;-69
2021/09/30 06:37:27;;;;;;;15.30;2.75;;;;;;;;;;5022896;28;20100;-68
2021/09/30 06:39:54;;;;;;;15.90;2.70;;;;;;;;;;5016017;28;20037;-70
2021/09/30 06:42:20;;;;;;;18.80;1.80;;;;;;;;;;5027195;28;20501;-70
2021/09/30 06:44:46;;;;;;;11.15;3.53;;;;;;;;;;5031781;28;20091;-71
2021/09/30 06:47:13;;;;;;;11.55;1.70;;;;;;;;;;5029731;28;20045;-70
2021/09/30 06:49:39;;;;;;;18.15;3.17;;;;;;;;;;5027781;28;20044;-72
2021/09/30 06:52:06;;;;;;;12.77;1.77;;;;;;;;;;5029863;28;20049;-70
2021/09/30 06:54:32;;;;;;;20.33;2.97;;;;;;;;;;5014818;28;20107;-70
2021/09/30 06:56:58;;;;;;;15.10;2.20;;;;;;;;;;5016916;28;20061;-71
2021/09/30 06:59:32;;;;;;;15.68;2.20;;;;;;;;;;5032255;28;20053;-70
2021/09/30 07:02:03;;;;;;;9.13;2.20;;;;;;;;;;5013807;28;20053;-71
2021/09/30 07:04:32;;;;;;;10.63;2.03;;;;;;;;;;5019655;28;20053;-70
2021/09/30 07:06:58;;;;;;;15.13;2.95;;;;;;;;;;5014281;28;20389;-70
2021/09/30 07:09:24;;;;;;;13.55;2.10;;;;;;;;;;5033096;28;20362;-70
2021/09/30 07:11:50;;;;;;;7.55;1.90;;;;;;;;;;5035379;28;20057;-70
2021/09/30 07:14:16;;;;;;;9.93;2.10;;;;;;;;;;5030847;28;20103;-70
2021/09/30 07:16:43;;;;;;;16.00;2.78;;;;;;;;;;5030577;28;20045;-69
2021/09/30 07:19:09;;;;;;;15.20;2.38;;;;;;;;;;5028446;28;20152;-70
2021/09/30 07:21:36;;;;;;;14.75;2.47;;;;;;;;;;5030051;28;20049;-70
2021/09/30 07:24:03;;;;;;;14.20;2.33;;;;;;;;;;5012098;28;20072;-70
2021/09/30 07:26:29;;;;;;;13.85;2.22;;;;;;;;;;5021333;28;20089;-69
2021/09/30 07:28:55;;;;;;;20.80;2.83;;;;;;;;;;5024613;28;20045;-69
2021/09/30 07:31:21;;;;;;;15.65;2.60;;;;;;;;;;5025219;28;20053;-70
2021/09/30 07:33:47;;;;;;;12.75;2.13;;;;;;;;;;5003540;28;20050;-69
2021/09/30 07:36:14;;;;;;;19.77;2.10;;;;;;;;;;5025224;28;20358;-69
2021/09/30 07:38:40;;;;;;;13.80;2.30;;;;;;;;;;5022644;28;20049;-69
2021/09/30 07:41:07;;;;;;;14.50;1.95;;;;;;;;;;5023817;28;20048;-70
2021/09/30 07:43:33;;;;;;;11.75;2.10;;;;;;;;;;5014827;28;20375;-69
2021/09/30 07:45:59;;;;;;;15.18;2.50;;;;;;;;;;5018537;28;20155;-70
2021/09/30 07:48:25;;;;;;;12.93;2.22;;;;;;;;;;5023694;28;20412;-70
2021/09/30 07:50:51;;;;;;;13.30;2.00;;;;;;;;;;5020984;28;20136;-70
2021/09/30 07:53:18;;;;;;;16.00;2.97;;;;;;;;;;5024851;28;20053;-70
2021/09/30 07:55:44;;;;;;;14.43;2.35;;;;;;;;;;5023959;28;20068;-71
2021/09/30 07:58:11;;;;;;;11.00;1.98;;;;;;;;;;5012970;28;20053;-70
2021/09/30 08:00:38;;;;;;;13.27;2.20;;;;;;;;;;5001477;28;20069;-70
2021/09/30 08:03:04;;;;;;;19.45;2.25;;;;;;;;;;5022128;28;20405;-70
2021/09/30 08:05:34;;;;;;;13.75;2.55;;;;;;;;;;5026036;28;20057;-70
2021/09/30 08:08:01;;;;;;;16.02;2.08;;;;;;;;;;5023390;28;20077;-70
2021/09/30 08:10:27;;;;;;;15.52;2.25;;;;;;;;;;5025023;28;20056;-81
2021/09/30 08:12:54;;;;;;;17.70;2.25;;;;;;;;;;5045812;28;20132;-81
2021/09/30 08:15:20;;;;;;;10.02;2.08;;;;;;;;;;5028027;28;20382;-81
2021/09/30 08:17:46;;;;;;;15.43;3.00;;;;;;;;;;5029556;28;20045;-81
2021/09/30 08:20:12;;;;;;;15.63;1.98;;;;;;;;;;5028734;28;20119;-81
2021/09/30 08:22:39;;;;;;;16.10;2.55;;;;;;;;;;5028203;28;20666;-81
2021/09/30 08:25:05;;;;;;;20.67;2.10;;;;;;;;;;5026881;28;20080;-81
2021/09/30 08:27:31;;;;;;;13.48;2.35;;;;;;;;;;5030971;28;20037;-81
2021/09/30 08:29:58;;;;;;;13.05;1.80;;;;;;;;;;5029109;28;20055;-81
2021/09/30 08:32:24;;;;;;;10.32;1.90;;;;;;;;;;5013234;28;20049;-81
2021/09/30 08:34:50;;;;;;;13.18;2.10;;;;;;;;;;5028375;28;20049;-81
2021/09/30 08:37:16;;;;;;;15.02;1.92;;;;;;;;;;5028878;28;20144;-80
2021/09/30 08:39:42;;;;;;;13.98;2.33;;;;;;;;;;5030205;28;20124;-82
2021/09/30 08:42:09;;;;;;;10.43;1.80;;;;;;;;;;5026268;28;20046;-81
2021/09/30 08:44:35;;;;;;;12.40;2.17;;;;;;;;;;5028016;28;20041;-81
2021/09/30 08:47:02;;;;;;;13.32;2.15;;;;;;;;;;5027458;28;20432;-76
2021/09/30 08:49:28;;;;;;;10.48;1.80;;;;;;;;;;5019751;28;20424;-81
2021/09/30 08:51:55;;;;;;;7.72;1.65;;;;;;;;;;5022334;28;20045;-82
2021/09/30 08:54:21;;;;;;;7.60;1.73;;;;;;;;;;5040561;28;20041;-82
2021/09/30 08:56:47;;;;;;;10.00;1.48;;;;;;;;;;5018935;28;20056;-82
2021/09/30 08:59:15;;;;;;;8.55;1.40;;;;;;;;;;5010146;28;20057;-82
2021/09/30 09:01:44;;;;;;;13.60;1.80;;;;;;;;;;5004065;28;20078;-81
2021/09/30 09:04:19;;;;;;;10.05;2.50;;;;;;;;;;5000479;28;20124;-82
2021/09/30 09:06:47;;;;;;;11.75;2.25;;;;;;;;;;5018283;28;20532;-81
2021/09/30 09:09:21;;;;;;;8.60;2.00;;;;;;;;;;5020952;28;20048;-81
2021/09/30 09:11:49;;;;;;;10.00;1.67;;;;;;;;;;5013614;28;20045;-81
2021/09/30 09:14:23;;;;;;;7.93;1.58;;;;;;;;;;5005817;28;20106;-82
2021/09/30 09:16:58;;;;;;;11.05;2.38;;;;;;;;;;5024028;28;20045;-81
2021/09/30 09:19:28;;;;;;;12.07;1.42;;;;;;;;;;5013845;28;20116;-86
2021/09/30 09:21:54;;;;;;;10.13;1.52;;;;;;;;;;5020158;28;20045;-78
2021/09/30 09:24:20;;;;;;;17.52;2.15;;;;;;;;;;5026514;28;20037;-81
2021/09/30 09:26:46;;;;;;;9.88;1.63;;;;;;;;;;5028081;28;20065;-81
2021/09/30 09:29:14;;;;;;;9.05;1.95;;;;;;;;;;5014907;28;20565;-81
2021/09/30 09:31:41;;;;;;;9.10;1.63;;;;;;;;;;5030830;28;20045;-80
2021/09/30 09:34:22;;;;;;;10.48;3.00;;;;;;;;;;5028214;28;20121;-80
2021/09/30 09:36:50;;;;;;;11.82;1.80;;;;;;;;;;5028365;28;20042;-80
2021/09/30 09:39:17;;;;;;;12.23;1.60;;;;;;;;;;5028149;28;20046;-81
2021/09/30 09:41:43;;;;;;;9.45;1.73;;;;;;;;;;5012417;28;20136;-81
2021/09/30 09:44:10;;;;;;;11.40;1.60;;;;;;;;;;4996260;28;20044;-80
2021/09/30 09:46:37;;;;;;;9.70;2.10;;;;;;;;;;5028443;28;20086;-80
2021/09/30 09:49:08;;;;;;;10.48;1.38;;;;;;;;;;5016701;28;20065;-81
2021/09/30 09:51:38;;;;;;;8.52;1.25;;;;;;;;;;5011851;28;20128;-80
2021/09/30 09:54:09;;;;;;;7.15;1.45;;;;;;;;;;5029237;28;20041;-81
2021/09/30 09:56:35;;;;;;;8.27;1.20;;;;;;;;;;5032690;28;20093;-80
2021/09/30 09:59:01;;;;;;;11.32;1.80;;;;;;;;;;5034005;28;20512;-77
2021/09/30 10:01:38;;;;;;;6.70;1.63;;;;;;;;;;5030148;28;20045;-82
2021/09/30 10:04:04;;;;;;;13.07;1.73;;;;;;;;;;5033488;28;20049;-82
2021/09/30 10:06:31;;;;;;;6.80;1.63;;;;;;;;;;5035041;28;20095;-82
2021/09/30 10:08:59;;;;;;;9.65;1.58;;;;;;;;;;5032953;28;20068;-83
2021/09/30 10:11:26;;;;;;;14.00;1.90;;;;;;;;;;5022994;28;20144;-82
2021/09/30 10:13:53;;;;;;;9.00;1.30;;;;;;;;;;5030986;28;20086;-87
2021/09/30 10:16:24;;;;;;;4.97;1.27;;;;;;;;;;5037349;28;20045;-82
2021/09/30 10:18:51;;;;;;;6.22;1.30;;;;;;;;;;5032793;28;20492;-90
2021/09/30 10:21:18;;;;;;;8.20;1.38;;;;;;;;;;5031757;28;20077;-81
2021/09/30 10:23:49;;;;;;;8.38;1.58;;;;;;;;;;5036706;28;20046;-84
2021/09/30 10:26:17;;;;;;;4.07;1.05;;;;;;;;;;5014370;28;20128;-81
2021/09/30 10:28:44;;;;;;;7.97;1.67;;;;;;;;;;5033443;28;20516;-82
2021/09/30 10:31:25;;;;;;;10.65;1.60;;;;;;;;;;5032429;28;20430;-84
2021/09/30 10:33:53;;;;;;;12.60;1.98;;;;;;;;;;5038057;28;20068;-83
2021/09/30 10:36:29;;;;;;;8.30;1.67;;;;;;;;;;5031740;28;20548;-87
2021/09/30 10:39:14;;;;;;;6.78;0.93;;;;;;;;;;5020292;28;20481;-87
2021/09/30 10:41:40;;;;;;;6.47;1.33;;;;;;;;;;5032454;28;20057;-87
2021/09/30 10:44:14;;;;;;;5.60;1.38;;;;;;;;;;5030357;28;20500;-86
2021/09/30 10:46:42;;;;;;;6.97;1.63;;;;;;;;;;5032208;28;20049;-86
2021/09/30 10:49:32;;;;;;;8.75;1.40;;;;;;;;;;5029449;28;20125;-85
2021/09/30 10:52:19;;;;;;;10.55;1.90;;;;;;;;;;5030500;28;20053;-84
2021/09/30 10:54:50;;;;;;;8.10;1.30;;;;;;;;;;5024457;28;20098;-83
2021/09/30 10:57:35;;;;;;;8.23;1.35;;;;;;;;;;5040841;28;20429;-86
2021/09/30 11:00:06;;;;;;;8.38;1.67;;;;;;;;;;5027121;28;20535;-85
2021/09/30 11:02:53;;;;;;;7.72;1.48;;;;;;;;;;5025488;28;20457;-82
2021/09/30 11:05:19;;;;;;;4.85;1.13;;;;;;;;;;5027027;28;20049;-85
2021/09/30 11:07:45;;;;;;;11.07;1.73;;;;;;;;;;5030273;28;20508;-86
2021/09/30 11:10:13;;;;;;;6.43;1.17;;;;;;;;;;5029426;28;21339;-83
2021/09/30 11:12:39;;;;;;;5.28;0.90;;;;;;;;;;5022202;28;20038;-82
2021/09/30 11:15:05;;;;;;;6.45;1.40;;;;;;;;;;5024907;28;20053;-89
2021/09/30 11:17:34;;;;;;;6.25;1.40;;;;;;;;;;5029186;28;20045;-92
2021/09/30 11:20:19;;;;;;;6.57;1.65;;;;;;;;;;5028987;28;20056;-88
2021/09/30 11:22:45;;;;;;;6.50;1.23;;;;;;;;;;5027337;28;20069;-86
2021/09/30 11:25:11;;;;;;;10.18;1.30;;;;;;;;;;5026246;28;20064;-87
2021/09/30 11:27:37;;;;;;;3.92;1.02;;;;;;;;;;5026988;28;20064;-87
2021/09/30 11:30:17;;;;;;;8.02;1.20;;;;;;;;;;5027830;28;20128;-88
2021/09/30 11:32:44;;;;;;;7.93;1.42;;;;;;;;;;5029830;28;20053;-82
2021/09/30 11:35:10;;;;;;;7.03;1.70;;;;;;;;;;5030097;28;20362;-91
2021/09/30 11:37:40;;;;;;;5.53;1.30;;;;;;;;;;5030286;28;20045;-91
2021/09/30 11:40:10;;;;;;;6.68;1.42;;;;;;;;;;5030277;28;20059;-91
2021/09/30 11:42:41;;;;;;;11.63;2.15;;;;;;;;;;5030121;28;20041;-91
2021/09/30 11:45:10;;;;;;;8.63;1.38;;;;;;;;;;5029062;28;20049;-92
2021/09/30 11:47:37;;;;;;;7.20;1.75;;;;;;;;;;5030092;28;20405;-91
2021/09/30 11:50:04;;;;;;;6.78;1.10;;;;;;;;;;5030110;28;20496;-90
2021/09/30 11:52:30;;;;;;;7.05;1.25;;;;;;;;;;5045321;28;20346;-91
2021/09/30 11:55:08;;;;;;;7.78;1.33;;;;;;;;;;5045220;28;20041;-93
2021/09/30 11:57:35;;;;;;;7.07;1.60;;;;;;;;;;5030079;28;20053;-91
2021/09/30 12:00:12;;;;;;;8.65;1.05;;;;;;;;;;5032145;28;20049;-91
2021/09/30 12:02:52;;;;;;;7.72;2.08;;;;;;;;;;5031555;28;20124;-91
2021/09/30 12:05:20;;;;;;;4.90;1.60;;;;;;;;;;5030831;28;20501;-94
2021/09/30 12:07:46;;;;;;;8.68;1.42;;;;;;;;;;5017967;28;20132;-81
2021/09/30 12:10:15;;;;;;;9.02;1.20;;;;;;;;;;5029336;28;20045;-91
2021/09/30 12:12:43;;;;;;;7.65;1.40;;;;;;;;;;5031279;28;20084;-88
2021/09/30 12:15:10;;;;;;;5.15;1.30;;;;;;;;;;5029289;28;20064;-91
2021/09/30 12:17:37;;;;;;;9.23;1.40;;;;;;;;;;4998937;28;20042;-89
2021/09/30 12:20:06;;;;;;;5.97;1.23;;;;;;;;;;5029950;28;20060;-90
2021/09/30 12:22:35;;;;;;;5.70;1.63;;;;;;;;;;5019395;28;20045;-90
2021/09/30 12:25:05;;;;;;;4.68;1.10;;;;;;;;;;5036080;28;20049;-85
2021/09/30 12:27:32;;;;;;;7.22;1.90;;;;;;;;;;5028288;28;20042;-84
2021/09/30 12:30:04;;;;;;;8.95;2.15;;;;;;;;;;5030263;28;20083;-70
2021/09/30 12:32:34;;;;;;;11.27;2.03;;;;;;;;;;5032121;28;20450;-69
2021/09/30 12:35:02;;;;;;;7.13;1.85;;;;;;;;;;5032735;28;20049;-70
2021/09/30 12:37:30;;;;;;;9.88;1.75;;;;;;;;;;5022311;28;20052;-69
2021/09/30 12:40:00;;;;;;;9.07;1.48;;;;;;;;;;5009138;28;20076;-69
2021/09/30 12:42:28;;;;;;;7.88;2.00;;;;;;;;;;5013958;28;20033;-69
2021/09/30 12:44:55;;;;;;;10.13;2.03;;;;;;;;;;5028331;28;20132;-69
2021/09/30 12:47:35;;;;;;;8.23;1.60;;;;;;;;;;5029815;28;20053;-69
2021/09/30 12:50:04;;;;;;;7.50;1.50;;;;;;;;;;5029732;28;20374;-70
2021/09/30 12:52:31;;;;;;;8.30;1.83;;;;;;;;;;5030531;28;21453;-70
2021/09/30 12:54:57;;;;;;;15.43;2.20;;;;;;;;;;5012771;28;20037;-69
2021/09/30 12:57:31;;;;;;;6.53;1.58;;;;;;;;;;5025738;28;20076;-69
2021/09/30 13:00:06;;;;;;;11.02;1.80;;;;;;;;;;5026222;28;20042;-70
2021/09/30 13:02:32;;;;;;;10.50;2.00;;;;;;;;;;5028293;28;20507;-71
2021/09/30 13:04:58;;;;;;;9.32;2.00;;;;;;;;;;5029514;28;20034;-71
2021/09/30 13:07:24;;;;;;;5.47;1.15;;;;;;;;;;5028234;28;20042;-71
2021/09/30 13:10:01;;;;;;;5.93;1.00;;;;;;;;;;5027554;28;20113;-71
2021/09/30 13:12:28;;;;;;;6.22;1.40;;;;;;;;;;5030301;28;20546;-71
2021/09/30 13:14:55;;;;;;;4.70;1.00;;;;;;;;;;5030588;28;20046;-71
2021/09/30 13:17:21;;;;;;;6.75;1.77;;;;;;;;;;5029661;28;20239;-71
2021/09/30 13:19:52;;;;;;;11.45;1.42;;;;;;;;;;5030690;28;20098;-71
2021/09/30 13:22:22;;;;;;;8.02;1.58;;;;;;;;;;5030124;28;20045;-72
2021/09/30 13:24:49;;;;;;;8.52;1.13;;;;;;;;;;5029636;28;20045;-71
2021/09/30 13:27:16;;;;;;;6.80;1.42;;;;;;;;;;5026665;28;20560;-71
2021/09/30 13:29:43;;;;;;;6.88;1.27;;;;;;;;;;5030375;28;20065;-71
2021/09/30 13:32:10;;;;;;;5.88;1.25;;;;;;;;;;5032095;28;20049;-72
2021/09/30 13:34:36;;;;;;;6.63;1.70;;;;;;;;;;5034278;28;20476;-72
2021/09/30 13:37:02;;;;;;;7.63;1.73;;;;;;;;;;5032443;28;20041;-72
2021/09/30 13:39:28;;;;;;;9.70;2.30;;;;;;;;;;5033519;28;20064;-70
2021/09/30 13:41:55;;;;;;;7.35;1.63;;;;;;;;;;5034314;28;20041;-69
2021/09/30 13:44:21;;;;;;;6.72;1.35;;;;;;;;;;5030256;28;20069;-70
2021/09/30 13:46:47;;;;;;;11.25;2.03;;;;;;;;;;5029568;28;20046;-70
2021/09/30 13:49:14;;;;;;;6.88;1.90;;;;;;;;;;5031033;28;20042;-68
2021/09/30 13:51:40;;;;;;;8.77;1.88;;;;;;;;;;5033175;28;20489;-68
2021/09/30 13:54:06;;;;;;;6.63;1.48;;;;;;;;;;5031671;28;20041;-68
2021/09/30 13:56:32;;;;;;;10.18;1.45;;;;;;;;;;5021931;28;20080;-68
2021/09/30 13:58:59;;;;;;;7.85;1.58;;;;;;;;;;5015579;28;20448;-68
2021/09/30 14:01:26;;;;;;;8.82;1.70;;;;;;;;;;5031996;28;20148;-68
2021/09/30 14:03:52;;;;;;;7.35;1.92;;;;;;;;;;5032818;28;20493;-68
2021/09/30 14:06:18;;;;;;;6.55;1.50;;;;;;;;;;5032879;28;20096;-68
2021/09/30 14:08:45;;;;;;;8.55;1.60;;;;;;;;;;5032442;28;20045;-68
2021/09/30 14:11:13;;;;;;;8.93;1.55;;;;;;;;;;5032396;28;20048;-68
2021/09/30 14:13:39;;;;;;;4.90;1.20;;;;;;;;;;5030288;28;20124;-68
2021/09/30 14:16:06;;;;;;;8.57;1.80;;;;;;;;;;5037019;28;20045;-68
2021/09/30 14:18:32;;;;;;;7.07;1.88;;;;;;;;;;5032399;28;20057;-68
2021/09/30 14:20:59;;;;;;;7.78;2.15;;;;;;;;;;5030652;28;20159;-68
2021/09/30 14:23:25;;;;;;;7.97;1.63;;;;;;;;;;5012498;28;20045;-68
2021/09/30 14:25:52;;;;;;;8.43;2.28;;;;;;;;;;5018003;28;20559;-68
2021/09/30 14:28:18;;;;;;;7.75;1.50;;;;;;;;;;5027743;28;20450;-68
2021/09/30 14:30:45;;;;;;;7.68;1.70;;;;;;;;;;5028273;28;20537;-68
2021/09/30 14:33:11;;;;;;;13.85;2.53;;;;;;;;;;5028651;28;20476;-68
2021/09/30 14:35:37;;;;;;;12.30;1.92;;;;;;;;;;5028793;28;20136;-69
2021/09/30 14:38:04;;;;;;;11.27;2.60;;;;;;;;;;5008606;28;20045;-67
2021/09/30 14:40:30;;;;;;;7.90;2.28;;;;;;;;;;5021425;28;20073;-68
2021/09/30 14:42:57;;;;;;;11.73;2.53;;;;;;;;;;5026204;28;20041;-67
2021/09/30 14:45:23;;;;;;;9.60;2.10;;;;;;;;;;5029005;28;20033;-68
2021/09/30 14:47:49;;;;;;;11.55;2.28;;;;;;;;;;5007213;28;20073;-67
2021/09/30 14:50:16;;;;;;;9.85;1.60;;;;;;;;;;5026152;28;20118;-67
2021/09/30 14:52:42;;;;;;;11.18;2.28;;;;;;;;;;5004503;28;20084;-67
2021/09/30 14:55:09;;;;;;;5.15;1.60;;;;;;;;;;5022239;28;20608;-68
2021/09/30 14:57:35;;;;;;;7.28;1.90;;;;;;;;;;5043762;28;20159;-68
2021/09/30 15:00:01;;;;;;;9.80;2.10;;;;;;;;;;5024815;28;20042;-68
2021/09/30 15:02:27;;;;;;;6.45;1.83;;;;;;;;;;5023962;28;20087;-68
2021/09/30 15:04:54;;;;;;;7.22;2.40;;;;;;;;;;5026463;28;20117;-68
2021/09/30 15:07:21;;;;;;;8.05;1.45;;;;;;;;;;5026066;28;20079;-65
2021/09/30 15:09:48;;;;;;;13.82;1.92;;;;;;;;;;5026633;28;20079;-65
2021/09/30 15:12:14;;;;;;;10.25;1.98;;;;;;;;;;5028340;28;20037;-65
2021/09/30 15:14:40;;;;;;;8.20;2.20;;;;;;;;;;5028195;28;20501;-65
2021/09/30 15:17:23;;;;;;;9.32;1.88;;;;;;;;;;5027278;28;20095;-65
2021/09/30 15:19:53;;;;;;;7.80;1.50;;;;;;;;;;5024615;28;20107;-65
2021/09/30 15:22:19;;;;;;;6.63;1.77;;;;;;;;;;5024045;28;20103;-65
2021/09/30 15:24:45;;;;;;;6.88;2.00;;;;;;;;;;5031489;28;20509;-65
2021/09/30 15:27:12;;;;;;;7.20;1.70;;;;;;;;;;5027421;28;20075;-65
2021/09/30 15:29:40;;;;;;;7.65;2.13;;;;;;;;;;5027936;28;20041;-65
2021/09/30 15:32:07;;;;;;;8.40;1.83;;;;;;;;;;5025887;28;20432;-65
2021/09/30 15:34:33;;;;;;;11.60;2.20;;;;;;;;;;5040709;28;20045;-65
2021/09/30 15:37:00;;;;;;;7.03;1.58;;;;;;;;;;5026077;28;20115;-65
2021/09/30 15:39:26;;;;;;;7.78;1.58;;;;;;;;;;5025313;28;20037;-66
2021/09/30 15:41:53;;;;;;;5.65;1.35;;;;;;;;;;5006790;28;20088;-65
2021/09/30 15:44:19;;;;;;;7.40;2.03;;;;;;;;;;5023474;28;20049;-65
2021/09/30 15:46:47;;;;;;;6.53;1.95;;;;;;;;;;5025859;28;20480;-66
2021/09/30 15:49:14;;;;;;;11.57;2.10;;;;;;;;;;5021121;28;20069;-65
2021/09/30 15:51:40;;;;;;;7.50;1.70;;;;;;;;;;5020772;28;20100;-65
2021/09/30 15:54:06;;;;;;;8.68;1.48;;;;;;;;;;5025923;28;20429;-65
2021/09/30 15:56:32;;;;;;;6.80;1.45;;;;;;;;;;5025509;28;20140;-66
2021/09/30 15:58:59;;;;;;;11.30;2.47;;;;;;;;;;5024459;28;20052;-66
2021/09/30 16:01:29;;;;;;;7.55;1.33;;;;;;;;;;5023266;28;20060;-65
2021/09/30 16:03:55;;;;;;;8.40;1.90;;;;;;;;;;5026492;28;20053;-66
2021/09/30 16:06:23;;;;;;;9.27;1.67;;;;;;;;;;5025789;28;20156;-66
2021/09/30 16:08:49;;;;;;;6.82;2.03;;;;;;;;;;5013392;28;20053;-66
2021/09/30 16:11:15;;;;;;;7.38;1.52;;;;;;;;;;5025227;28;20452;-66
2021/09/30 16:13:42;;;;;;;14.38;1.63;;;;;;;;;;4994703;28;20080;-66
2021/09/30 16:16:08;;;;;;;8.98;1.58;;;;;;;;;;5024117;28;20042;-66
2021/09/30 16:18:36;;;;;;;6.88;1.75;;;;;;;;;;5028076;28;20033;-66
2021/09/30 16:21:03;;;;;;;9.27;2.10;;;;;;;;;;5023549;28;20327;-66
2021/09/30 16:23:30;;;;;;;10.02;1.60;;;;;;;;;;5026224;28;20034;-66
2021/09/30 16:25:56;;;;;;;9.70;1.92;;;;;;;;;;5023909;28;20112;-66
2021/09/30 16:28:22;;;;;;;13.88;2.13;;;;;;;;;;5028441;28;20112;-66
2021/09/30 16:30:53;;;;;;;8.63;2.20;;;;;;;;;;5022168;28;20038;-66
2021/09/30 16:33:20;;;;;;;6.93;2.13;;;;;;;;;;5021065;28;20073;-66
2021/09/30 16:35:46;;;;;;;11.38;1.85;;;;;;;;;;5028432;28;20041;-66
2021/09/30 16:38:13;;;;;;;8.18;1.92;;;;;;;;;;5018638;28;20046;-66
2021/09/30 16:40:39;;;;;;;8.77;2.05;;;;;;;;;;5010694;28;20079;-66
2021/09/30 16:43:05;;;;;;;9.30;1.95;;;;;;;;;;5021486;28;20050;-66
2021/09/30 16:45:32;;;;;;;9.57;2.30;;;;;;;;;;5019678;28;20396;-66
2021/09/30 16:47:58;;;;;;;9.57;2.13;;;;;;;;;;5006161;28;20056;-66
2021/09/30 16:50:24;;;;;;;13.32;2.55;;;;;;;;;;5027159;28;20042;-66
2021/09/30 16:52:50;;;;;;;6.72;1.75;;;;;;;;;;5011532;28;20045;-66
2021/09/30 16:55:18;;;;;;;13.45;2.05;;;;;;;;;;5025606;28;20069;-66
2021/09/30 16:57:45;;;;;;;11.40;1.88;;;;;;;;;;4994533;28;20148;-66
2021/09/30 17:00:12;;;;;;;7.78;2.05;;;;;;;;;;5026470;28;20041;-66
2021/09/30 17:02:39;;;;;;;9.68;2.30;;;;;;;;;;5010035;28;20046;-66
2021/09/30 17:05:05;;;;;;;8.65;1.70;;;;;;;;;;5031159;28;20052;-66
2021/09/30 17:07:32;;;;;;;8.00;1.73;;;;;;;;;;5018739;28;20044;-66